Time;durP1;ratioP1;P1;durP2;ratioP2;P2;SDS_P1;SDS_P2;PMS_P1;PMS_P2;Temp;Humidity;BMP_temperature;BMP_pressure;BME280_temperature;BME280_humidity;BME280_pressure;Samples;Min_cycle;Max_cycle;Signal;HPM_P1;HPM_P2
2022/08/11 00:02:34;;;;;;;3.88;2.42;;;;;;;19.45;51.64;100940.63;5071250;28;20059;-66
2022/08/11 00:05:11;;;;;;;4.05;2.70;;;;;;;19.42;51.72;100947.00;5071758;28;20044;-66
2022/08/11 00:07:49;;;;;;;4.50;2.38;;;;;;;19.33;52.04;100949.19;5073284;28;20431;-66
2022/08/11 00:10:19;;;;;;;4.57;2.50;;;;;;;19.28;51.83;100940.97;5071453;28;20045;-66
2022/08/11 00:12:52;;;;;;;3.70;2.28;;;;;;;19.25;51.97;100936.03;5071688;28;20075;-66
2022/08/11 00:15:19;;;;;;;4.18;2.03;;;;;;;19.14;52.49;100946.25;5071601;28;20051;-65
2022/08/11 00:17:47;;;;;;;4.18;2.47;;;;;;;19.01;52.77;100937.81;5071715;28;20056;-65
2022/08/11 00:20:18;;;;;;;6.07;2.30;;;;;;;18.94;52.93;100942.44;5070931;28;20075;-65
2022/08/11 00:22:48;;;;;;;3.15;2.30;;;;;;;18.90;53.12;100941.50;5087042;28;20041;-65
2022/08/11 00:25:17;;;;;;;3.65;2.15;;;;;;;18.82;53.15;100934.88;5087866;28;20044;-65
2022/08/11 00:27:46;;;;;;;3.78;2.63;;;;;;;18.78;53.72;100942.38;5089569;28;20052;-65
2022/08/11 00:30:17;;;;;;;3.75;2.38;;;;;;;18.75;53.73;100948.72;5071382;28;20053;-65
2022/08/11 00:32:53;;;;;;;2.90;2.30;;;;;;;18.72;54.00;100946.63;5070943;28;20064;-64
2022/08/11 00:35:27;;;;;;;2.65;2.30;;;;;;;18.71;53.70;100945.81;5071263;28;20049;-66
2022/08/11 00:37:56;;;;;;;2.75;2.40;;;;;;;18.67;53.68;100934.41;5076074;28;20052;-63
2022/08/11 00:40:34;;;;;;;2.80;2.25;;;;;;;18.70;53.79;100937.69;5071190;28;20056;-67
2022/08/11 00:43:13;;;;;;;3.40;2.22;;;;;;;18.65;53.89;100942.41;5071304;28;20048;-66
2022/08/11 00:45:50;;;;;;;3.72;2.50;;;;;;;18.63;53.59;100939.13;5059391;28;20052;-66
2022/08/11 00:48:26;;;;;;;4.95;2.70;;;;;;;18.60;54.09;100939.84;5070972;28;20064;-66
2022/08/11 00:51:09;;;;;;;2.47;2.28;;;;;;;18.55;54.04;100937.28;5071564;28;20465;-66
2022/08/11 00:53:46;;;;;;;5.15;2.75;;;;;;;18.52;54.24;100935.19;5077128;28;20059;-66
2022/08/11 00:56:45;;;;;;;4.18;2.70;;;;;;;18.51;54.29;100942.00;5091343;28;20074;-66
2022/08/11 00:59:31;;;;;;;4.10;2.50;;;;;;;18.44;54.82;100944.59;5085155;28;20052;-66
2022/08/11 01:02:14;;;;;;;3.75;2.20;;;;;;;18.36;55.38;100946.38;5072352;28;20055;-67
2022/08/11 01:05:24;;;;;;;5.60;2.80;;;;;;;18.27;55.11;100945.72;5074207;28;20045;-66
2022/08/11 01:08:23;;;;;;;3.65;2.50;;;;;;;18.20;55.21;100948.28;5091752;28;20062;-67
2022/08/11 01:11:10;;;;;;;3.20;2.80;;;;;;;18.14;55.30;100947.72;5078389;28;20056;-67
2022/08/11 01:14:20;;;;;;;3.75;2.45;;;;;;;18.08;55.56;100937.88;5074196;28;20056;-66
2022/08/11 01:17:07;;;;;;;4.40;2.55;;;;;;;18.01;55.77;100940.44;5048050;28;20053;-67
2022/08/11 01:19:57;;;;;;;3.83;2.67;;;;;;;17.96;55.81;100932.22;5074436;28;20336;-67
2022/08/11 01:22:59;;;;;;;3.67;2.80;;;;;;;17.88;56.09;100934.00;5089718;28;20044;-67
2022/08/11 01:26:15;;;;;;;4.40;3.10;;;;;;;17.85;56.04;100943.97;5081846;28;20417;-67
2022/08/11 01:29:11;;;;;;;4.88;2.83;;;;;;;17.79;56.44;100936.91;5074368;28;20059;-66
2022/08/11 01:32:02;;;;;;;4.35;2.80;;;;;;;17.76;56.38;100946.03;5040819;28;20064;-67
2022/08/11 01:35:17;;;;;;;5.10;2.78;;;;;;;17.76;56.11;100946.03;5072637;28;20060;-66
2022/08/11 01:38:23;;;;;;;4.05;2.60;;;;;;;17.75;56.28;100935.16;5054536;28;20049;-66
2022/08/11 01:44:36;;;;;;;5.55;2.92;;;;;;;17.70;56.33;100941.00;5061768;28;20440;-67
2022/08/11 01:44:37;;;;;;;3.50;2.88;;;;;;;17.61;56.86;100943.94;5061195;28;20057;-66
2022/08/11 01:47:49;;;;;;;3.05;2.75;;;;;;;17.54;57.01;100943.69;5073751;28;20100;-66
2022/08/11 01:50:15;;;;;;;4.10;2.75;;;;;;;17.47;57.56;100941.47;5077079;28;20056;-66
2022/08/11 01:53:00;;;;;;;3.60;2.72;;;;;;;17.48;57.46;100940.28;5080079;28;20492;-65
2022/08/11 01:55:37;;;;;;;3.33;2.72;;;;;;;17.48;57.53;100951.53;5091489;28;20056;-67
2022/08/11 01:58:14;;;;;;;3.20;2.60;;;;;;;17.39;57.64;100946.03;5073586;28;20053;-65
2022/08/11 02:00:54;;;;;;;4.18;3.08;;;;;;;17.36;57.81;100949.53;5073494;28;20060;-66
2022/08/11 02:03:35;;;;;;;5.40;2.92;;;;;;;17.34;57.83;100946.22;5072503;28;20056;-66
2022/08/11 02:09:02;;;;;;;3.10;2.63;;;;;;;17.24;58.16;100953.16;5073422;28;20052;-67
2022/08/11 02:11:33;;;;;;;5.07;2.80;;;;;;;17.23;58.04;100953.50;5073273;28;20674;-66
2022/08/11 02:14:11;;;;;;;3.58;2.53;;;;;;;17.20;57.99;100943.75;5072472;28;20445;-66
2022/08/11 02:16:52;;;;;;;5.65;3.15;;;;;;;17.18;57.91;100950.91;5073325;28;20099;-66
2022/08/11 02:25:17;;;;;;;3.88;2.85;;;;;;;17.08;58.53;100952.16;5074095;28;20060;-66
2022/08/11 02:27:50;;;;;;;5.47;3.10;;;;;;;17.02;58.62;100953.53;5073108;28;20071;-66
2022/08/11 02:30:24;;;;;;;3.67;2.55;;;;;;;17.00;58.53;100953.06;5073225;28;20401;-66
2022/08/11 02:35:57;;;;;;;3.38;2.70;;;;;;;16.90;58.73;100945.88;5090953;28;20067;-67
2022/08/11 02:38:32;;;;;;;4.15;2.85;;;;;;;16.89;58.94;100944.25;5077643;28;20079;-67
2022/08/11 02:42:21;;;;;;;5.28;2.72;;;;;;;16.88;58.79;100942.56;5072864;28;20048;-65
2022/08/11 02:44:12;;;;;;;3.72;2.92;;;;;;;16.84;58.78;100950.09;5072698;28;20063;-66
2022/08/11 02:46:50;;;;;;;4.55;2.80;;;;;;;16.84;58.90;100939.66;5072757;28;20055;-66
2022/08/11 02:52:31;;;;;;;4.78;3.10;;;;;;;16.70;59.07;100941.91;5091080;28;20500;-66
2022/08/11 02:55:14;;;;;;;4.93;3.35;;;;;;;16.67;59.17;100944.56;5073197;28;20063;-66
2022/08/11 02:57:51;;;;;;;5.55;3.25;;;;;;;16.63;59.49;100938.81;5072458;28;20401;-66
2022/08/11 03:00:21;;;;;;;4.07;2.97;;;;;;;16.58;59.59;100942.66;5072533;28;20052;-62
2022/08/11 03:03:16;;;;;;;3.10;2.80;;;;;;;16.57;59.78;100943.84;5073003;28;20052;-68
2022/08/11 03:05:59;;;;;;;3.38;2.67;;;;;;;16.57;59.44;100943.84;5072806;28;20056;-67
2022/08/11 03:08:50;;;;;;;4.38;3.40;;;;;;;16.57;59.50;100951.44;5071862;28;20068;-67
2022/08/11 03:17:21;;;;;;;4.45;3.05;;;;;;;16.36;60.26;100951.44;5071451;28;20059;-66
2022/08/11 03:20:00;;;;;;;3.70;2.83;;;;;;;16.35;60.16;100955.41;5075343;28;20467;-66
2022/08/11 03:22:36;;;;;;;4.55;2.97;;;;;;;16.41;59.98;100951.25;5071877;28;20507;-66
2022/08/11 03:25:10;;;;;;;4.20;3.38;;;;;;;16.38;60.07;100946.31;5071999;28;20056;-66
2022/08/11 03:27:50;;;;;;;4.22;3.47;;;;;;;16.37;59.95;100950.28;5072272;28;20055;-66
2022/08/11 03:30:25;;;;;;;4.07;3.28;;;;;;;16.31;60.02;100943.22;5072096;28;20524;-66
2022/08/11 03:36:16;;;;;;;5.05;3.38;;;;;;;16.21;60.37;100953.69;5078131;28;20067;-65
2022/08/11 03:39:01;;;;;;;3.55;2.75;;;;;;;16.19;60.29;100953.22;5071686;28;20064;-66
2022/08/11 03:41:51;;;;;;;3.78;2.72;;;;;;;16.19;60.55;100947.59;5072048;28;20057;-67
2022/08/11 03:44:46;;;;;;;3.90;3.05;;;;;;;16.19;60.55;100952.38;5071829;28;20053;-67
2022/08/11 03:47:37;;;;;;;4.90;2.95;;;;;;;16.12;60.70;100952.91;5080055;28;20074;-67
2022/08/11 03:50:16;;;;;;;5.07;3.60;;;;;;;16.08;60.78;100946.31;5081654;28;20473;-66
2022/08/11 03:52:54;;;;;;;4.45;3.33;;;;;;;16.06;60.74;100954.28;5072060;28;20056;-66
2022/08/11 03:55:40;;;;;;;5.13;3.13;;;;;;;16.06;60.62;100951.47;5071320;28;20053;-66
2022/08/11 03:58:37;;;;;;;3.75;3.20;;;;;;;16.03;60.52;100954.97;5071776;28;20469;-66
2022/08/11 04:01:37;;;;;;;6.35;3.10;;;;;;;16.00;60.81;100947.19;5080383;28;20512;-67
2022/08/11 04:04:58;;;;;;;3.95;3.00;;;;;;;16.01;60.63;100948.88;5092030;28;20062;-67
2022/08/11 04:07:59;;;;;;;4.05;3.55;;;;;;;15.98;60.51;100943.91;5071380;28;20052;-66
2022/08/11 04:11:12;;;;;;;5.38;3.20;;;;;;;15.97;60.76;100942.28;5045387;28;20053;-66
2022/08/11 04:17:38;;;;;;;5.90;3.10;;;;;;;15.94;60.88;100946.59;5045127;28;20052;-66
2022/08/11 04:20:45;;;;;;;3.92;3.20;;;;;;;15.92;60.92;100943.28;5053904;28;20492;-66
2022/08/11 04:23:25;;;;;;;4.05;3.70;;;;;;;15.89;60.82;100945.94;5044617;28;20053;-66
2022/08/11 04:26:30;;;;;;;4.53;3.92;;;;;;;15.90;61.02;100945.63;5058805;28;20476;-67
2022/08/11 04:29:11;;;;;;;4.00;3.58;;;;;;;15.88;60.83;100947.13;5072508;28;20044;-66
2022/08/11 04:31:44;;;;;;;4.20;3.58;;;;;;;15.92;60.75;100946.09;5079288;28;20446;-66
2022/08/11 04:34:41;;;;;;;6.78;3.65;;;;;;;15.94;60.44;100937.34;5066486;28;20512;-66
2022/08/11 04:37:34;;;;;;;5.72;4.00;;;;;;;15.92;60.59;100942.47;5067421;28;20055;-66
2022/08/11 04:40:12;;;;;;;3.90;3.53;;;;;;;15.93;60.61;100950.53;5083014;28;20070;-66
2022/08/11 04:43:21;;;;;;;5.40;4.35;;;;;;;15.94;60.31;100946.59;5077364;28;20052;-66
2022/08/11 04:46:22;;;;;;;5.97;3.92;;;;;;;15.93;60.66;100946.91;5074979;28;20064;-67
2022/08/11 05:02:10;;;;;;;7.20;3.97;;;;;;;16.04;61.03;100950.97;5078212;28;20416;-67
2022/08/11 05:08:19;;;;;;;7.82;4.28;;;;;;;15.90;61.57;100951.25;5070047;28;20060;-58
2022/08/11 05:11:03;;;;;;;6.82;4.78;;;;;;;15.53;63.22;100953.69;5007376;28;20476;-58
2022/08/11 05:36:28;;;;;;;6.80;4.85;;;;;;;16.76;60.07;100962.22;5065725;28;20059;-58
2022/08/11 05:58:35;;;;;;;8.40;4.50;;;;;;;17.87;57.09;100968.16;5076410;28;20056;-66
2022/08/11 06:01:03;;;;;;;6.55;4.45;;;;;;;17.95;56.60;100964.41;5092305;28;20044;-67
2022/08/11 06:04:12;;;;;;;5.53;5.00;;;;;;;18.10;56.43;100969.34;5068425;28;20055;-67
2022/08/11 06:06:20;;;;;;;5.00;4.38;;;;;;;18.20;56.24;100960.38;5068218;28;20061;-68
2022/08/11 06:08:50;;;;;;;7.22;4.93;;;;;;;18.32;56.18;100962.38;5068063;28;20053;-68
2022/08/11 06:11:18;;;;;;;8.15;5.32;;;;;;;18.41;56.06;100959.41;5067844;28;20060;-67
2022/08/11 06:13:46;;;;;;;8.52;6.30;;;;;;;18.51;55.74;100960.94;5065563;28;20067;-67
2022/08/11 06:16:14;;;;;;;13.87;7.73;;;;;;;18.60;55.49;100956.75;5069734;28;20052;-67
2022/08/11 06:18:46;;;;;;;10.85;6.97;;;;;;;18.73;55.27;100954.75;5074588;28;20466;-67
2022/08/11 06:21:15;;;;;;;10.05;6.88;;;;;;;18.80;55.36;100949.31;5072142;28;20071;-68
2022/08/11 06:23:43;;;;;;;;;;;;;;;18.87;55.25;100954.34;5072658;28;20048;-67
2022/08/11 06:26:14;;;;;;;10.88;6.72;;;;;;;18.97;55.01;100953.84;5076205;28;20352;-69
2022/08/11 06:28:44;;;;;;;9.48;5.65;;;;;;;19.05;55.31;100954.88;5090811;28;20052;-67
2022/08/11 06:31:14;;;;;;;9.77;5.70;;;;;;;19.15;55.24;100950.69;5072344;28;20044;-67
2022/08/11 06:33:55;;;;;;;6.85;5.70;;;;;;;19.29;55.27;100947.44;5069759;28;20044;-67
2022/08/11 06:36:34;;;;;;;6.60;5.40;;;;;;;19.40;55.25;100948.53;5070791;28;20064;-65
2022/08/11 06:39:14;;;;;;;7.75;5.80;;;;;;;19.53;55.34;100952.94;5058327;28;20056;-67
2022/08/11 06:41:51;;;;;;;8.73;5.75;;;;;;;19.63;55.31;100949.56;5063223;28;20056;-67
2022/08/11 06:44:28;;;;;;;7.05;5.40;;;;;;;19.68;55.32;100951.31;5067224;28;20060;-67
2022/08/11 06:47:04;;;;;;;7.55;4.85;;;;;;;19.83;54.94;100949.69;5071643;28;20064;-67
2022/08/11 06:52:30;;;;;;;8.52;4.90;;;;;;;20.10;54.88;100941.44;5075327;28;20068;-65
2022/08/11 06:55:05;;;;;;;7.10;5.10;;;;;;;20.26;54.64;100934.56;5069254;28;20048;-67
2022/08/11 07:00:30;;;;;;;7.88;4.70;;;;;;;20.53;53.59;100937.56;5012685;28;20062;-67
2022/08/11 07:03:02;;;;;;;6.78;4.63;;;;;;;20.65;53.18;100937.44;5074588;28;20053;-67
2022/08/11 07:05:42;;;;;;;6.57;5.00;;;;;;;20.80;52.72;100929.25;5071082;28;20048;-67
2022/08/11 07:17:37;;;;;;;6.70;4.47;;;;;;;21.45;51.32;100937.00;5072543;28;20059;-67
2022/08/11 07:31:20;;;;;;;6.47;3.80;;;;;;;23.96;44.76;100922.34;5054317;28;20052;-66
2022/08/11 07:33:50;;;;;;;7.72;4.03;;;;;;;24.55;43.34;100916.63;5068216;28;20150;-66
2022/08/11 07:36:18;;;;;;;5.90;3.80;;;;;;;25.44;41.54;100916.09;5069045;28;20412;-66
2022/08/11 07:38:50;;;;;;;6.10;3.70;;;;;;;26.24;39.43;100918.50;5074652;28;20048;-66
2022/08/11 07:41:20;;;;;;;6.72;3.88;;;;;;;26.86;37.80;100908.53;5083861;28;20998;-66
2022/08/11 07:43:51;;;;;;;5.70;3.33;;;;;;;27.89;36.19;100908.25;5070246;28;20408;-66
2022/08/11 07:54:40;;;;;;;6.07;3.33;;;;;;;31.29;30.52;100901.06;5054473;28;20067;-66
2022/08/11 08:19:21;;;;;;;6.18;3.15;;;;;;;40.18;19.26;100896.59;5074912;28;20399;-65
2022/08/11 08:21:49;;;;;;;6.57;3.45;;;;;;;40.74;18.57;100897.25;5089287;28;20067;-65
2022/08/11 08:24:19;;;;;;;5.05;2.92;;;;;;;41.22;17.77;100897.94;5073236;28;20064;-66
2022/08/11 08:26:58;;;;;;;5.82;3.20;;;;;;;41.74;17.40;100901.47;5073473;28;20063;-65
2022/08/11 08:32:12;;;;;;;3.53;2.90;;;;;;;42.70;16.83;100901.03;5080712;28;20056;-66
2022/08/11 08:34:41;;;;;;;5.38;3.20;;;;;;;43.13;16.62;100897.88;5072999;28;20405;-65
2022/08/11 08:37:08;;;;;;;5.55;2.92;;;;;;;43.61;16.11;100896.75;5075095;28;20048;-66
2022/08/11 08:39:37;;;;;;;5.22;3.63;;;;;;;44.23;15.67;100884.81;5073632;28;20052;-65
2022/08/11 08:42:09;;;;;;;4.55;3.65;;;;;;;44.16;15.66;100885.34;5076624;28;20385;-66
2022/08/11 08:44:42;;;;;;;4.10;3.25;;;;;;;44.71;14.79;100895.19;5075570;28;20488;-65
2022/08/11 08:47:15;;;;;;;4.05;3.28;;;;;;;44.87;14.60;100892.69;5069984;28;20061;-65
2022/08/11 08:49:50;;;;;;;3.92;3.20;;;;;;;45.70;14.53;100896.19;5079825;28;20052;-65
2022/08/11 08:52:22;;;;;;;6.13;3.97;;;;;;;46.50;13.14;100887.13;5095139;28;20060;-65
2022/08/11 08:54:55;;;;;;;5.03;4.47;;;;;;;47.03;12.90;100890.28;5078396;28;20400;-65
2022/08/11 08:57:27;;;;;;;4.45;3.78;;;;;;;46.86;12.88;100887.63;5068207;28;20056;-65
2022/08/11 08:59:56;;;;;;;7.28;5.07;;;;;;;47.74;12.04;100884.94;5067908;28;20228;-65
2022/08/11 09:02:26;;;;;;;4.53;4.13;;;;;;;48.64;11.47;100888.88;5071688;28;20408;-65
2022/08/11 09:04:55;;;;;;;7.05;3.20;;;;;;;49.63;10.82;100882.22;5067784;28;20492;-65
2022/08/11 09:07:25;;;;;;;5.32;3.45;;;;;;;50.41;10.25;100883.44;5073762;28;20040;-65
2022/08/11 09:09:56;;;;;;;4.97;4.15;;;;;;;50.70;9.63;100875.97;5070313;28;20056;-64
2022/08/11 09:12:28;;;;;;;5.10;4.32;;;;;;;51.45;9.04;100875.78;5087311;28;20052;-65
2022/08/11 09:15:03;;;;;;;5.45;4.25;;;;;;;51.72;8.92;100869.38;5067897;28;20063;-65
2022/08/11 09:17:34;;;;;;;7.10;5.30;;;;;;;51.63;9.03;100873.00;5074352;28;20055;-65
2022/08/11 09:20:06;;;;;;;5.85;5.40;;;;;;;52.64;8.43;100863.03;5073865;28;20055;-64
2022/08/11 09:28:11;;;;;;;5.28;4.78;;;;;;;53.66;7.19;100862.31;5077975;28;20409;-64
2022/08/11 09:30:42;;;;;;;5.25;4.70;;;;;;;53.96;6.66;100860.38;5072344;28;20044;-64
2022/08/11 09:33:13;;;;;;;4.97;4.63;;;;;;;54.44;6.37;100865.88;5076297;28;20059;-65
2022/08/11 09:35:45;;;;;;;4.63;4.00;;;;;;;53.61;6.87;100862.59;5088048;28;20063;-65
2022/08/11 09:41:04;;;;;;;5.10;4.65;;;;;;;53.77;6.62;100854.25;5077939;28;20056;-65
2022/08/11 09:46:25;;;;;;;;;;;;;;;51.04;7.40;100847.31;5077178;28;20500;-64
2022/08/11 09:48:55;;;;;;;5.30;4.80;;;;;;;51.84;7.03;100858.69;5071527;28;19920;-64
2022/08/11 09:51:25;;;;;;;7.20;6.18;;;;;;;52.42;6.36;100846.09;5069642;28;20056;-64
2022/08/11 09:53:53;;;;;;;7.03;5.70;;;;;;;51.31;6.73;100854.44;5054539;28;20060;-64
2022/08/11 09:59:09;;;;;;;6.30;5.78;;;;;;;50.75;6.74;100856.38;5074975;28;20067;-64
2022/08/11 10:01:41;;;;;;;6.05;4.47;;;;;;;52.05;6.56;100848.69;5074223;28;20055;-64
2022/08/11 10:04:15;;;;;;;5.75;5.35;;;;;;;52.36;6.35;100847.13;5070080;28;20053;-64
2022/08/11 10:07:03;;;;;;;5.18;4.65;;;;;;;52.06;6.89;100847.28;5073196;28;20056;-62
2022/08/11 10:09:38;;;;;;;5.65;5.15;;;;;;;49.62;7.29;100859.91;5072922;28;20056;-62
2022/08/11 10:12:10;;;;;;;6.00;5.50;;;;;;;47.76;8.67;100856.44;5071394;28;20481;-63
2022/08/11 10:17:33;;;;;;;5.03;3.55;;;;;;;48.65;8.26;100845.31;5066387;28;20122;-62
2022/08/11 10:20:03;;;;;;;7.00;4.57;;;;;;;49.24;8.10;100833.78;5072438;28;20071;-62
2022/08/11 10:28:09;;;;;;;4.82;4.45;;;;;;;49.97;8.40;100846.47;5066171;28;20063;-62
2022/08/11 10:36:07;;;;;;;4.80;4.40;;;;;;;51.37;7.35;100833.44;5071099;28;20056;-62
2022/08/11 10:38:38;;;;;;;5.30;4.78;;;;;;;51.47;6.94;100828.47;5070366;28;20075;-61
2022/08/11 10:43:54;;;;;;;6.80;6.30;;;;;;;52.88;6.28;100822.00;5076900;28;20067;-61
2022/08/11 10:49:10;;;;;;;5.90;5.40;;;;;;;52.78;6.11;100815.91;5078008;28;20075;-61
2022/08/11 11:00:00;;;;;;;5.55;5.03;;;;;;;50.49;7.28;100816.03;5067820;28;20060;-61
2022/08/11 11:02:30;;;;;;;5.57;5.18;;;;;;;50.83;7.24;100803.03;5064919;28;20076;-61
2022/08/11 11:05:01;;;;;;;4.78;4.00;;;;;;;49.75;7.56;100808.66;5068415;28;20068;-61
2022/08/11 11:07:38;;;;;;;4.85;4.43;;;;;;;49.25;7.59;100807.94;5070266;28;20071;-61
2022/08/11 11:10:08;;;;;;;3.70;3.33;;;;;;;50.27;7.45;100800.53;5062388;28;20048;-61
2022/08/11 11:18:18;;;;;;;6.22;5.78;;;;;;;50.09;6.92;100786.91;5069890;28;20067;-61
2022/08/11 11:20:51;;;;;;;4.30;3.58;;;;;;;49.45;7.75;100792.31;5068302;28;20055;-61
2022/08/11 11:23:23;;;;;;;6.45;3.80;;;;;;;50.46;6.92;100793.50;5058863;28;20048;-61
2022/08/11 11:26:26;;;;;;;4.15;3.80;;;;;;;51.85;6.80;100780.03;5064365;28;20505;-61
2022/08/11 11:29:15;;;;;;;7.57;3.28;;;;;;;52.68;6.55;100776.34;5070239;28;20327;-61
2022/08/11 11:31:54;;;;;;;8.10;5.47;;;;;;;53.23;6.09;100777.41;5063875;28;20070;-61
2022/08/11 11:34:36;;;;;;;6.50;5.90;;;;;;;50.91;7.09;100774.94;5070272;28;20056;-60
2022/08/11 11:37:05;;;;;;;4.38;3.72;;;;;;;51.76;7.15;100768.75;5066278;28;20353;-60
2022/08/11 11:39:33;;;;;;;4.30;3.72;;;;;;;52.01;6.52;100771.81;5070500;28;20048;-61
2022/08/11 11:42:06;;;;;;;5.93;5.43;;;;;;;50.64;7.16;100774.53;5066774;28;20059;-61
2022/08/11 11:44:37;;;;;;;4.40;4.00;;;;;;;50.95;8.04;100765.63;5070641;28;20044;-60
2022/08/11 11:47:06;;;;;;;4.55;3.85;;;;;;;51.92;7.04;100758.41;5062380;28;20052;-60
2022/08/11 11:49:38;;;;;;;5.13;4.25;;;;;;;51.10;7.34;100756.72;5077768;28;20523;-60
2022/08/11 11:52:07;;;;;;;5.40;4.93;;;;;;;51.17;7.64;100755.91;5071584;28;20045;-61
2022/08/11 11:54:36;;;;;;;6.53;5.93;;;;;;;51.63;7.73;100748.25;5070251;28;20052;-61
2022/08/11 12:02:33;;;;;;;6.15;5.65;;;;;;;50.89;8.04;100727.25;5091856;28;20074;-61
2022/08/11 12:05:01;;;;;;;5.18;3.70;;;;;;;50.30;8.29;100734.16;5062086;28;20063;-60
2022/08/11 12:10:16;;;;;;;3.90;2.97;;;;;;;50.46;8.19;100746.84;5072113;28;20119;-61
2022/08/11 12:15:31;;;;;;;4.35;3.90;;;;;;;51.38;6.85;100722.19;5076271;28;20087;-60
2022/08/11 12:18:00;;;;;;;3.35;3.05;;;;;;;51.46;6.97;100725.94;5074715;28;20504;-60
2022/08/11 12:20:39;;;;;;;4.35;3.90;;;;;;;50.70;7.27;100717.97;5065836;28;20351;-60
2022/08/11 12:28:39;;;;;;;4.50;3.97;;;;;;;49.74;7.82;100721.97;5076065;28;20068;-60
2022/08/11 12:31:08;;;;;;;5.03;2.90;;;;;;;49.00;8.47;100716.69;5070022;28;20053;-60
2022/08/11 12:33:36;;;;;;;4.75;4.25;;;;;;;49.33;8.72;100714.06;5071667;28;20060;-59
2022/08/11 12:36:05;;;;;;;4.88;4.30;;;;;;;48.12;8.10;100710.38;5068826;28;20060;-60
2022/08/11 12:38:34;;;;;;;4.47;4.05;;;;;;;48.36;8.70;100710.03;5065324;28;20404;-60
2022/08/11 12:46:36;;;;;;;;;;;;;;;46.44;8.88;100703.72;5077523;28;20123;-60
2022/08/11 12:52:00;;;;;;;5.95;4.20;;;;;;;46.60;9.41;100687.84;5069289;28;20060;-59
2022/08/11 12:54:31;;;;;;;3.00;2.78;;;;;;;47.17;8.58;100688.38;5069540;28;20455;-59
2022/08/11 13:05:18;;;;;;;5.43;3.47;;;;;;;46.86;9.67;100680.44;5073158;28;20329;-60
2022/08/11 13:07:47;;;;;;;3.38;3.08;;;;;;;47.08;9.58;100674.03;5072469;28;20408;-59
2022/08/11 13:12:46;;;;;;;5.30;3.35;;;;;;;46.85;10.05;100673.72;5090808;28;20056;-60
2022/08/11 13:13:06;;;;;;;4.18;3.88;;;;;;;46.73;9.17;100673.13;5069214;28;20063;-60
2022/08/11 13:15:36;;;;;;;3.55;3.25;;;;;;;46.17;9.53;100674.16;5071836;28;20060;-59
2022/08/11 13:18:06;;;;;;;4.38;4.03;;;;;;;46.23;9.76;100671.91;5073283;28;20044;-59
2022/08/11 13:20:35;;;;;;;3.85;2.90;;;;;;;46.41;10.04;100670.25;5073860;28;20055;-59
2022/08/11 13:23:04;;;;;;;4.30;3.90;;;;;;;46.34;9.63;100667.94;5069227;28;20044;-60
2022/08/11 13:25:32;;;;;;;4.15;3.42;;;;;;;46.04;9.85;100662.34;5071139;28;20527;-60
2022/08/11 13:28:01;;;;;;;5.40;3.97;;;;;;;45.27;10.57;100651.94;5071355;28;20119;-60
2022/08/11 13:33:18;;;;;;;4.07;2.95;;;;;;;44.66;10.59;100657.97;5079632;28;20079;-60
2022/08/11 13:35:48;;;;;;;4.30;3.92;;;;;;;45.01;10.59;100652.53;5074119;28;20057;-61
2022/08/11 13:38:17;;;;;;;3.75;3.42;;;;;;;44.62;10.95;100657.50;5081448;28;20052;-60
2022/08/11 13:40:45;;;;;;;4.82;3.30;;;;;;;44.27;10.93;100650.34;5072247;28;20055;-60
2022/08/11 13:43:14;;;;;;;6.07;3.70;;;;;;;44.03;11.29;100644.41;5071371;28;20044;-61
2022/08/11 13:45:46;;;;;;;3.95;3.10;;;;;;;44.31;11.47;100647.09;5072603;28;20056;-60
2022/08/11 13:48:16;;;;;;;3.85;3.55;;;;;;;43.98;11.11;100640.19;5072642;28;20048;-60
2022/08/11 13:53:30;;;;;;;3.95;2.50;;;;;;;43.59;11.15;100636.16;5073598;28;20484;-60
2022/08/11 13:55:59;;;;;;;4.10;3.67;;;;;;;43.32;11.36;100629.13;5072506;28;20044;-60
2022/08/11 13:58:28;;;;;;;4.93;4.43;;;;;;;42.88;11.82;100635.97;5070418;28;20059;-60
2022/08/11 14:00:57;;;;;;;4.53;3.03;;;;;;;42.85;12.50;100631.22;5070366;28;20413;-59
2022/08/11 14:03:27;;;;;;;5.28;2.92;;;;;;;42.95;12.55;100635.44;5064297;28;20056;-60
2022/08/11 14:05:59;;;;;;;3.63;2.75;;;;;;;42.82;12.05;100630.13;5067320;28;20044;-60
2022/08/11 14:08:31;;;;;;;4.22;2.80;;;;;;;42.48;12.36;100632.34;5070960;28;20496;-60
2022/08/11 14:13:59;;;;;;;4.75;3.28;;;;;;;42.51;11.90;100625.44;5006736;28;20053;-60
2022/08/11 14:16:30;;;;;;;4.22;3.00;;;;;;;42.46;12.70;100632.09;5042007;28;20064;-60
2022/08/11 14:19:02;;;;;;;3.55;2.97;;;;;;;42.45;12.45;100633.44;5060547;28;20441;-60
2022/08/11 14:24:21;;;;;;;3.45;2.40;;;;;;;42.13;12.81;100633.72;5072836;28;20071;-59
2022/08/11 14:26:50;;;;;;;3.40;2.53;;;;;;;41.98;12.65;100623.03;5067315;28;20052;-60
2022/08/11 14:29:20;;;;;;;5.00;2.85;;;;;;;41.87;13.18;100631.78;5061182;28;20049;-59
2022/08/11 14:31:50;;;;;;;4.15;3.10;;;;;;;41.93;12.35;100625.97;5068320;28;20436;-59
2022/08/11 14:34:21;;;;;;;4.80;3.60;;;;;;;41.82;12.16;100625.97;5070817;28;20055;-60
2022/08/11 14:36:52;;;;;;;3.97;3.45;;;;;;;40.88;13.73;100620.06;5066859;28;20055;-60
2022/08/11 14:39:22;;;;;;;2.95;2.47;;;;;;;40.74;13.52;100616.00;5069920;28;20044;-59
2022/08/11 14:47:25;;;;;;;3.78;2.30;;;;;;;40.15;13.62;100615.34;5078467;28;20071;-59
2022/08/11 14:49:57;;;;;;;3.85;2.42;;;;;;;40.16;14.17;100616.94;5072192;28;20057;-60
2022/08/11 14:52:26;;;;;;;3.40;2.70;;;;;;;39.97;13.86;100613.59;5071080;28;20056;-59
2022/08/11 14:57:41;;;;;;;2.83;2.42;;;;;;;39.98;13.94;100596.91;5077662;28;20055;-59
2022/08/11 15:00:14;;;;;;;4.38;2.55;;;;;;;40.04;14.06;100600.66;5077837;28;20420;-63
2022/08/11 15:05:28;;;;;;;4.90;3.35;;;;;;;39.55;14.48;100612.13;5075343;28;20071;-61
2022/08/11 15:07:59;;;;;;;4.18;2.53;;;;;;;39.59;14.47;100603.16;5068548;28;20044;-62
2022/08/11 15:10:27;;;;;;;4.68;2.42;;;;;;;39.38;14.88;100603.19;5060427;28;20056;-62
2022/08/11 15:12:55;;;;;;;5.78;2.40;;;;;;;39.38;14.56;100596.56;5061769;28;20057;-64
2022/08/11 15:18:10;;;;;;;4.38;2.88;;;;;;;39.14;14.89;100600.56;5071165;28;19920;-63
2022/08/11 15:26:13;;;;;;;2.88;2.55;;;;;;;39.00;14.57;100583.97;5078211;28;20060;-64
2022/08/11 15:37:29;;;;;;;4.45;3.10;;;;;;;37.45;15.76;100589.16;5077630;28;20454;-63
2022/08/11 15:45:48;;;;;;;4.55;3.05;;;;;;;37.33;16.14;100572.81;5095798;28;20075;-61
2022/08/11 15:48:34;;;;;;;3.28;2.50;;;;;;;37.29;16.21;100578.81;5082955;28;20512;-61
2022/08/11 15:51:09;;;;;;;4.80;2.92;;;;;;;37.15;16.10;100568.78;5071579;28;20048;-61
2022/08/11 15:53:43;;;;;;;3.95;2.47;;;;;;;37.19;16.54;100568.56;5071817;28;20049;-61
2022/08/11 15:56:11;;;;;;;3.45;2.65;;;;;;;37.13;16.45;100571.38;5071780;28;20488;-61
2022/08/11 16:04:23;;;;;;;5.38;2.40;;;;;;;36.55;16.58;100561.13;5035982;28;20061;-64
2022/08/11 16:06:54;;;;;;;4.63;3.00;;;;;;;36.44;17.24;100566.69;5031977;28;20049;-65
2022/08/11 16:09:27;;;;;;;3.30;2.50;;;;;;;36.31;17.58;100561.94;5031146;28;20111;-65
2022/08/11 16:11:59;;;;;;;3.00;2.70;;;;;;;36.17;17.51;100553.94;5040889;28;20079;-65
2022/08/11 16:17:16;;;;;;;4.20;2.63;;;;;;;36.09;17.62;100550.56;5037330;28;20064;-64
2022/08/11 16:19:46;;;;;;;5.05;2.80;;;;;;;35.84;17.71;100562.59;5031629;28;20129;-65
2022/08/11 16:22:20;;;;;;;3.92;2.63;;;;;;;35.71;18.11;100554.13;5031315;28;20052;-65
2022/08/11 16:24:51;;;;;;;3.47;2.53;;;;;;;35.57;18.03;100552.66;5032307;28;20402;-65
2022/08/11 16:27:18;;;;;;;3.95;2.50;;;;;;;35.50;17.89;100553.03;5046915;28;20493;-65
2022/08/11 16:29:50;;;;;;;3.95;2.63;;;;;;;35.32;18.54;100554.69;5039630;28;20053;-64
2022/08/11 16:32:22;;;;;;;4.45;2.65;;;;;;;35.30;18.65;100551.47;5031632;28;20053;-64
2022/08/11 16:40:25;;;;;;;4.38;2.40;;;;;;;34.91;19.05;100553.22;5043734;28;20353;-65
2022/08/11 16:48:30;;;;;;;4.05;2.97;;;;;;;34.24;19.46;100558.56;5040608;28;20061;-64
2022/08/11 16:50:59;;;;;;;3.53;3.10;;;;;;;34.03;19.75;100553.66;5032106;28;20050;-65
2022/08/11 16:53:29;;;;;;;4.07;2.72;;;;;;;33.80;19.74;100557.88;5040318;28;20420;-65
2022/08/11 16:56:01;;;;;;;4.10;2.47;;;;;;;33.72;20.20;100557.34;5034633;28;20050;-65
2022/08/11 17:01:20;;;;;;;2.50;2.30;;;;;;;33.50;20.38;100555.28;5071974;28;20059;-64
2022/08/11 17:16:05;;;;;;;4.07;2.92;;;;;;;32.93;21.29;100554.53;5081628;28;20063;-64